createdAt,value
2019-01-06T00:00:32.940Z,19.12
2019-01-06T00:01:32.962Z,19.15
2019-01-06T00:02:32.974Z,19.12
2019-01-06T00:03:33.000Z,19.14
2019-01-06T00:04:33.008Z,19.08
2019-01-06T00:05:33.038Z,19.16
2019-01-06T00:06:33.065Z,19.04
2019-01-06T00:07:33.064Z,19.15
2019-01-06T00:08:33.082Z,19.12
2019-01-06T00:09:33.105Z,19.14
2019-01-06T00:10:33.109Z,19.07
2019-01-06T00:11:33.136Z,19.14
2019-01-06T00:12:33.172Z,19.11
2019-01-06T00:13:33.177Z,19.18
2019-01-06T00:14:33.208Z,19.21
2019-01-06T00:15:33.210Z,19.15
2019-01-06T00:16:33.218Z,19.18
2019-01-06T00:17:33.234Z,19.15
2019-01-06T00:18:33.264Z,19.02
2019-01-06T00:19:33.284Z,19.16
2019-01-06T00:20:33.302Z,19.15
2019-01-06T00:21:33.317Z,19.09
2019-01-06T00:22:33.343Z,19.14
2019-01-06T00:23:33.354Z,19.14
2019-01-06T00:24:33.372Z,19.14
2019-01-06T00:25:33.387Z,19.16
2019-01-06T00:26:33.427Z,19.09
2019-01-06T00:27:33.415Z,19.07
2019-01-06T00:28:33.444Z,19.16
2019-01-06T00:29:33.462Z,19.14
2019-01-06T00:30:33.479Z,19.15
2019-01-06T00:31:33.502Z,19.08
2019-01-06T00:32:33.514Z,19.18
2019-01-06T00:33:33.542Z,19.14
2019-01-06T00:34:33.550Z,19.08
2019-01-06T00:35:33.568Z,19.14
2019-01-06T00:36:33.590Z,19.14
2019-01-06T00:37:33.608Z,19.15
2019-01-06T00:38:33.621Z,19.09
2019-01-06T00:39:33.642Z,19.12
2019-01-06T00:40:33.664Z,19.15
2019-01-06T00:41:33.680Z,19.15
2019-01-06T00:42:33.689Z,19.11
2019-01-06T00:43:33.708Z,19.14
2019-01-06T00:44:33.738Z,19.15
2019-01-06T00:45:33.750Z,19.12
2019-01-06T00:46:33.764Z,19.15
2019-01-06T00:47:33.802Z,19.15
2019-01-06T00:48:33.796Z,19.15
2019-01-06T00:49:33.818Z,19.16
2019-01-06T00:50:33.850Z,19.14
2019-01-06T00:51:33.858Z,19.18
2019-01-06T00:52:33.874Z,19.11
2019-01-06T00:53:33.892Z,19.14
2019-01-06T00:54:33.918Z,19.16
2019-01-06T00:55:33.930Z,19.15
2019-01-06T00:56:33.951Z,19.16
2019-01-06T00:57:33.966Z,19.14
2019-01-06T00:58:33.985Z,19.19
2019-01-06T00:59:34.008Z,19.14
2019-01-06T01:00:34.010Z,19.19
2019-01-06T01:01:34.034Z,19.22
2019-01-06T01:02:34.058Z,19.12
2019-01-06T01:03:34.070Z,19.18
2019-01-06T01:04:34.093Z,19.12
2019-01-06T01:05:34.107Z,19.19
2019-01-06T01:06:34.126Z,19.16
2019-01-06T01:07:34.141Z,19.19
2019-01-06T01:08:34.163Z,19.15
2019-01-06T01:09:35.891Z,19.18
2019-01-06T01:10:34.193Z,19.16
2019-01-06T01:11:34.219Z,19.22
2019-01-06T01:12:34.234Z,19.16
2019-01-06T01:13:34.251Z,19.19
2019-01-06T01:14:34.267Z,19.19
2019-01-06T01:15:34.287Z,19.16
2019-01-06T01:16:34.305Z,19.14
2019-01-06T01:17:34.329Z,19.16
2019-01-06T01:18:34.346Z,19.21
2019-01-06T01:19:34.365Z,19.15
2019-01-06T01:20:34.377Z,19.15
2019-01-06T01:21:34.404Z,19.16
2019-01-06T01:22:34.417Z,19.15
2019-01-06T01:23:34.429Z,19.21
2019-01-06T01:24:34.451Z,19.24
2019-01-06T01:25:34.494Z,19.22
2019-01-06T01:26:34.488Z,19.14
2019-01-06T01:27:34.507Z,19.21
2019-01-06T01:28:34.524Z,19.16
2019-01-06T01:29:34.537Z,19.19
2019-01-06T01:30:34.564Z,19.14
2019-01-06T01:31:34.579Z,19.27
2019-01-06T01:32:34.597Z,19.19
2019-01-06T01:33:34.610Z,19.14
2019-01-06T01:34:34.627Z,19.16
2019-01-06T01:35:34.738Z,19.22
2019-01-06T01:36:34.665Z,19.19
2019-01-06T01:37:34.725Z,19.22
2019-01-06T01:38:34.703Z,19.16
2019-01-06T01:39:34.730Z,19.16
2019-01-06T01:40:34.735Z,19.22
2019-01-06T01:41:34.760Z,19.16
2019-01-06T01:42:34.766Z,19.18
2019-01-06T01:43:34.791Z,19.19
2019-01-06T01:44:34.814Z,19.18
2019-01-06T01:45:34.833Z,19.19
2019-01-06T01:46:34.844Z,19.15
2019-01-06T01:47:34.874Z,19.15
2019-01-06T01:48:34.881Z,19.16
2019-01-06T01:49:34.907Z,19.19
2019-01-06T01:50:34.917Z,19.21
2019-01-06T01:51:34.933Z,19.19
2019-01-06T01:52:34.961Z,19.19
2019-01-06T01:53:34.975Z,19.14
2019-01-06T01:54:34.989Z,19.16
2019-01-06T01:55:35.014Z,19.24
2019-01-06T01:56:35.028Z,19.16
2019-01-06T01:57:35.044Z,19.16
2019-01-06T01:58:35.072Z,19.19
2019-01-06T01:59:35.081Z,19.12
2019-01-06T02:00:35.091Z,19.16
2019-01-06T02:01:35.123Z,19.21
2019-01-06T02:02:35.133Z,19.16
2019-01-06T02:03:35.155Z,19.15
2019-01-06T02:04:35.265Z,19.19
2019-01-06T02:05:35.189Z,19.15
2019-01-06T02:06:35.218Z,19.21
2019-01-06T02:07:35.213Z,19.16
2019-01-06T02:08:35.243Z,19.19
2019-01-06T02:09:35.263Z,19.14
2019-01-06T02:10:35.272Z,19.16
2019-01-06T02:11:35.295Z,19.16
2019-01-06T02:12:35.319Z,19.16
2019-01-06T02:13:35.328Z,19.16
2019-01-06T02:14:35.345Z,19.19
2019-01-06T02:15:35.369Z,19.16
2019-01-06T02:16:35.386Z,19.16
2019-01-06T02:17:35.405Z,19.19
2019-01-06T02:18:35.429Z,19.24
2019-01-06T02:19:35.447Z,19.18
2019-01-06T02:20:35.456Z,19.18
2019-01-06T02:21:35.473Z,19.16
2019-01-06T02:22:35.501Z,19.14
2019-01-06T02:23:35.509Z,19.16
2019-01-06T02:24:35.527Z,19.19
2019-01-06T02:25:35.552Z,19.16
2019-01-06T02:26:35.565Z,19.15
2019-01-06T02:27:35.586Z,19.24
2019-01-06T02:28:35.601Z,19.19
2019-01-06T02:29:35.621Z,19.16
2019-01-06T02:30:35.633Z,19.16
2019-01-06T02:31:35.656Z,19.19
2019-01-06T02:32:35.678Z,19.18
2019-01-06T02:33:35.692Z,19.16
2019-01-06T02:34:35.724Z,19.16
2019-01-06T02:35:35.729Z,19.22
2019-01-06T02:36:35.740Z,19.19
2019-01-06T02:37:35.761Z,19.16
2019-01-06T02:38:35.777Z,19.21
2019-01-06T02:39:35.801Z,19.19
2019-01-06T02:40:35.820Z,19.16
2019-01-06T02:41:35.838Z,19.14
2019-01-06T02:42:35.859Z,19.14
2019-01-06T02:43:35.869Z,19.19
2019-01-06T02:44:35.889Z,19.16
2019-01-06T02:45:35.911Z,19.14
2019-01-06T02:46:36.009Z,19.19
2019-01-06T02:47:35.954Z,19.21
2019-01-06T02:48:35.961Z,19.16
2019-01-06T02:49:35.995Z,19.22
2019-01-06T02:50:35.998Z,19.16
2019-01-06T02:51:36.019Z,19.16
2019-01-06T02:52:36.068Z,19.16
2019-01-06T02:53:36.050Z,19.16
2019-01-06T02:54:36.069Z,19.16
2019-01-06T02:55:36.089Z,19.15
2019-01-06T02:56:36.106Z,19.14
2019-01-06T02:57:36.127Z,19.21
2019-01-06T02:58:36.143Z,19.19
2019-01-06T02:59:36.160Z,19.22
2019-01-06T03:00:36.186Z,19.19
2019-01-06T03:01:36.194Z,19.16
2019-01-06T03:02:36.231Z,19.19
2019-01-06T03:03:36.231Z,19.16
2019-01-06T03:04:36.252Z,19.16
2019-01-06T03:05:36.265Z,19.19
2019-01-06T03:06:36.283Z,19.16
2019-01-06T03:07:36.311Z,19.16
2019-01-06T03:08:36.326Z,19.19
2019-01-06T03:09:36.341Z,19.19
2019-01-06T03:10:36.351Z,19.18
2019-01-06T03:11:36.381Z,19.16
2019-01-06T03:12:36.406Z,19.18
2019-01-06T03:13:36.409Z,19.16
2019-01-06T03:14:36.428Z,19.21
2019-01-06T03:15:36.445Z,19.15
2019-01-06T03:16:36.461Z,19.14
2019-01-06T03:17:36.489Z,19.16
2019-01-06T03:18:36.503Z,19.16
2019-01-06T03:19:36.521Z,19.19
2019-01-06T03:20:36.538Z,19.16
2019-01-06T03:21:36.558Z,19.18
2019-01-06T03:22:36.661Z,19.21
2019-01-06T03:23:36.589Z,19.16
2019-01-06T03:24:36.610Z,19.16
2019-01-06T03:25:36.618Z,19.15
2019-01-06T03:26:36.643Z,19.16
2019-01-06T03:27:36.664Z,19.18
2019-01-06T03:28:36.695Z,19.21
2019-01-06T03:29:36.700Z,19.14
2019-01-06T03:30:36.732Z,19.15
2019-01-06T03:31:36.820Z,19.16
2019-01-06T03:32:36.760Z,19.16
2019-01-06T03:33:36.779Z,19.16
2019-01-06T03:34:36.792Z,19.16
2019-01-06T03:35:36.803Z,19.16
2019-01-06T03:36:36.826Z,19.22
2019-01-06T03:37:36.845Z,19.19
2019-01-06T03:38:36.871Z,19.14
2019-01-06T03:39:36.879Z,19.19
2019-01-06T03:40:36.897Z,19.22
2019-01-06T03:41:36.913Z,19.19
2019-01-06T03:42:36.934Z,19.12
2019-01-06T03:43:36.952Z,19.21
2019-01-06T03:44:37.599Z,19.18
2019-01-06T03:45:36.990Z,19.18
2019-01-06T03:46:37.002Z,19.16
2019-01-06T03:47:37.024Z,19.12
2019-01-06T03:48:37.040Z,19.12
2019-01-06T03:49:37.059Z,19.14
2019-01-06T03:50:37.072Z,19.16
2019-01-06T03:51:37.104Z,19.18
2019-01-06T03:52:37.114Z,19.15
2019-01-06T03:53:37.128Z,19.16
2019-01-06T03:54:37.280Z,19.14
2019-01-06T03:55:37.172Z,19.16
2019-01-06T03:56:37.182Z,19.22
2019-01-06T03:57:37.208Z,19.16
2019-01-06T03:58:37.236Z,19.16
2019-01-06T03:59:37.241Z,19.18
2019-01-06T04:00:37.261Z,19.21
2019-01-06T04:01:37.289Z,19.15
2019-01-06T04:02:37.289Z,19.21
2019-01-06T04:03:37.330Z,19.24
2019-01-06T04:04:37.343Z,19.19
2019-01-06T04:05:37.348Z,19.16
2019-01-06T04:06:37.368Z,19.24
2019-01-06T04:07:37.386Z,19.14
2019-01-06T04:08:37.414Z,19.19
2019-01-06T04:09:37.417Z,19.19
2019-01-06T04:10:37.437Z,19.14
2019-01-06T04:11:37.477Z,19.22
2019-01-06T04:12:37.471Z,19.22
2019-01-06T04:13:37.491Z,19.16
2019-01-06T04:14:37.514Z,19.16
2019-01-06T04:15:37.527Z,19.21
2019-01-06T04:16:37.546Z,19.26
2019-01-06T04:17:37.568Z,19.24
2019-01-06T04:18:37.582Z,19.22
2019-01-06T04:19:37.603Z,19.18
2019-01-06T04:20:37.617Z,19.18
2019-01-06T04:21:37.637Z,19.24
2019-01-06T04:22:37.655Z,19.21
2019-01-06T04:23:37.669Z,19.27
2019-01-06T04:24:37.689Z,19.18
2019-01-06T04:25:37.705Z,19.29
2019-01-06T04:26:37.721Z,19.19
2019-01-06T04:27:37.745Z,19.26
2019-01-06T04:28:37.763Z,19.21
2019-01-06T04:29:37.782Z,19.18
2019-01-06T04:30:37.796Z,19.29
2019-01-06T04:31:37.816Z,19.24
2019-01-06T04:32:37.847Z,19.18
2019-01-06T04:33:37.849Z,19.27
2019-01-06T04:34:37.895Z,19.18
2019-01-06T04:35:37.885Z,19.26
2019-01-06T04:36:37.902Z,19.26
2019-01-06T04:37:37.921Z,19.24
2019-01-06T04:38:37.936Z,19.26
2019-01-06T04:39:37.960Z,19.29
2019-01-06T04:40:37.980Z,19.27
2019-01-06T04:41:37.999Z,19.27
2019-01-06T04:42:38.007Z,19.30
2019-01-06T04:43:38.029Z,19.15
2019-01-06T04:44:38.049Z,19.21
2019-01-06T04:45:38.075Z,19.21
2019-01-06T04:46:38.089Z,19.24
2019-01-06T04:47:38.105Z,19.24
2019-01-06T04:48:38.130Z,19.24
2019-01-06T04:49:38.137Z,19.26
2019-01-06T04:50:38.155Z,19.21
2019-01-06T04:51:38.176Z,19.24
2019-01-06T04:52:38.196Z,19.26
2019-01-06T04:53:38.211Z,19.22
2019-01-06T04:54:38.225Z,19.24
2019-01-06T04:55:38.245Z,19.27
2019-01-06T04:56:38.265Z,19.21
2019-01-06T04:57:38.285Z,19.15
2019-01-06T04:58:38.303Z,19.24
2019-01-06T04:59:38.321Z,19.29
2019-01-06T05:00:38.335Z,19.29
2019-01-06T05:01:38.356Z,19.27
2019-01-06T05:02:38.376Z,19.31
2019-01-06T05:03:38.389Z,19.18
2019-01-06T05:04:38.407Z,19.27
2019-01-06T05:05:38.431Z,19.18
2019-01-06T05:06:38.441Z,19.30
2019-01-06T05:07:38.464Z,19.31
2019-01-06T05:08:38.482Z,19.19
2019-01-06T05:09:38.495Z,19.21
2019-01-06T05:10:38.522Z,19.16
2019-01-06T05:11:38.535Z,19.27
2019-01-06T05:12:38.549Z,19.21
2019-01-06T05:13:38.574Z,19.29
2019-01-06T05:14:38.588Z,19.27
2019-01-06T05:15:38.607Z,19.26
2019-01-06T05:16:38.620Z,19.24
2019-01-06T05:17:38.630Z,19.18
2019-01-06T05:18:38.658Z,19.24
2019-01-06T05:19:38.678Z,19.33
2019-01-06T05:20:38.732Z,19.24
2019-01-06T05:21:38.716Z,19.24
2019-01-06T05:22:38.736Z,19.27
2019-01-06T05:23:38.746Z,19.18
2019-01-06T05:24:38.774Z,19.24
2019-01-06T05:25:38.790Z,19.24
2019-01-06T05:26:38.808Z,19.29
2019-01-06T05:27:38.826Z,19.27
2019-01-06T05:28:38.842Z,19.19
2019-01-06T05:29:38.860Z,19.30
2019-01-06T05:30:38.876Z,19.24
2019-01-06T05:31:38.903Z,19.18
2019-01-06T05:32:38.916Z,19.30
2019-01-06T05:33:38.932Z,19.29
2019-01-06T05:34:38.948Z,19.22
2019-01-06T05:35:38.968Z,19.31
2019-01-06T05:36:38.983Z,19.27
2019-01-06T05:37:39.011Z,19.29
2019-01-06T05:38:39.022Z,19.21
2019-01-06T05:39:39.039Z,19.30
2019-01-06T05:40:39.055Z,19.30
2019-01-06T05:41:39.074Z,19.29
2019-01-06T05:42:39.096Z,19.26
2019-01-06T05:43:39.110Z,19.27
2019-01-06T05:44:39.130Z,19.21
2019-01-06T05:45:39.157Z,19.18
2019-01-06T05:46:39.160Z,19.30
2019-01-06T05:47:39.180Z,19.21
2019-01-06T05:48:39.232Z,19.21
2019-01-06T05:49:39.222Z,19.26
2019-01-06T05:50:39.246Z,19.19
2019-01-06T05:51:39.249Z,19.24
2019-01-06T05:52:39.291Z,19.14
2019-01-06T05:53:39.291Z,19.27
2019-01-06T05:54:39.328Z,19.29
2019-01-06T05:55:39.326Z,19.22
2019-01-06T05:56:39.354Z,19.24
2019-01-06T05:57:39.363Z,19.18
2019-01-06T05:58:39.378Z,19.27
2019-01-06T05:59:39.402Z,19.27
2019-01-06T06:00:39.420Z,19.26
2019-01-06T06:01:39.434Z,19.30
2019-01-06T06:02:39.456Z,19.27
2019-01-06T06:03:39.470Z,19.21
2019-01-06T06:04:39.488Z,19.27
2019-01-06T06:05:39.506Z,19.24
2019-01-06T06:06:39.528Z,19.29
2019-01-06T06:07:39.538Z,19.24
2019-01-06T06:08:39.557Z,19.27
2019-01-06T06:09:39.572Z,19.24
2019-01-06T06:10:39.594Z,19.22
2019-01-06T06:11:39.634Z,19.19
2019-01-06T06:12:39.632Z,19.24
2019-01-06T06:13:39.648Z,19.21
2019-01-06T06:14:39.666Z,19.29
2019-01-06T06:15:39.684Z,19.29
2019-01-06T06:16:39.704Z,19.18
2019-01-06T06:17:39.722Z,19.21
2019-01-06T06:18:39.740Z,19.21
2019-01-06T06:19:39.753Z,19.19
2019-01-06T06:20:39.772Z,19.22
2019-01-06T06:21:39.790Z,19.21
2019-01-06T06:22:39.812Z,19.27
2019-01-06T06:23:39.830Z,19.24
2019-01-06T06:24:39.848Z,19.30
2019-01-06T06:25:39.931Z,19.27
2019-01-06T06:26:39.890Z,19.29
2019-01-06T06:27:39.902Z,19.29
2019-01-06T06:28:39.913Z,19.26
2019-01-06T06:29:39.940Z,19.19
2019-01-06T06:30:39.952Z,19.24
2019-01-06T06:31:39.973Z,19.29
2019-01-06T06:32:39.988Z,19.22
2019-01-06T06:33:40.008Z,19.30
2019-01-06T06:34:40.028Z,19.24
2019-01-06T06:35:40.059Z,19.21
2019-01-06T06:36:40.061Z,19.27
2019-01-06T06:37:40.084Z,19.29
2019-01-06T06:38:40.096Z,19.21
2019-01-06T06:39:40.126Z,19.27
2019-01-06T06:40:40.130Z,19.22
2019-01-06T06:41:40.156Z,19.29
2019-01-06T06:42:40.170Z,19.30
2019-01-06T06:43:40.183Z,19.24
2019-01-06T06:44:40.208Z,19.21
2019-01-06T06:45:40.230Z,19.26
2019-01-06T06:46:40.256Z,19.29
2019-01-06T06:47:40.265Z,19.27
2019-01-06T06:48:40.285Z,19.30
2019-01-06T06:49:40.296Z,19.29
2019-01-06T06:50:40.315Z,19.18
2019-01-06T06:51:40.338Z,19.21
2019-01-06T06:52:40.351Z,19.19
2019-01-06T06:53:40.364Z,19.18
2019-01-06T06:54:40.388Z,19.30
2019-01-06T06:55:40.413Z,19.30
2019-01-06T06:56:40.424Z,19.27
2019-01-06T06:57:40.454Z,19.31
2019-01-06T06:58:40.464Z,19.33
2019-01-06T06:59:40.476Z,19.30
2019-01-06T07:00:40.492Z,19.19
2019-01-06T07:01:42.059Z,19.24
2019-01-06T07:02:40.532Z,19.27
2019-01-06T07:03:40.550Z,19.27
2019-01-06T07:04:40.565Z,19.16
2019-01-06T07:05:40.588Z,19.29
2019-01-06T07:06:40.604Z,19.22
2019-01-06T07:07:40.624Z,19.18
2019-01-06T07:08:40.640Z,19.29
2019-01-06T07:09:40.649Z,19.27
2019-01-06T07:10:40.679Z,19.18
2019-01-06T07:11:40.733Z,19.18
2019-01-06T07:12:40.715Z,19.27
2019-01-06T07:13:41.110Z,19.29
2019-01-06T07:14:40.747Z,19.22
2019-01-06T07:15:40.778Z,19.30
2019-01-06T07:16:40.781Z,19.27
2019-01-06T07:17:40.807Z,19.26
2019-01-06T07:18:40.818Z,19.22
2019-01-06T07:19:40.849Z,19.22
2019-01-06T07:20:40.856Z,19.27
2019-01-06T07:21:40.876Z,19.31
2019-01-06T07:22:40.890Z,19.29
2019-01-06T07:23:40.906Z,19.18
2019-01-06T07:24:40.927Z,19.29
2019-01-06T07:25:40.947Z,19.22
2019-01-06T07:26:40.965Z,19.22
2019-01-06T07:27:40.979Z,19.21
2019-01-06T07:28:41.001Z,19.31
2019-01-06T07:29:41.017Z,19.21
2019-01-06T07:30:41.041Z,19.30
2019-01-06T07:31:41.050Z,19.24
2019-01-06T07:32:41.072Z,19.29
2019-01-06T07:33:41.087Z,19.21
2019-01-06T07:34:41.111Z,19.29
2019-01-06T07:35:41.126Z,19.26
2019-01-06T07:36:41.146Z,19.26
2019-01-06T07:37:41.164Z,19.19
2019-01-06T07:38:41.289Z,19.21
2019-01-06T07:39:41.197Z,19.21
2019-01-06T07:40:41.217Z,19.30
2019-01-06T07:41:41.232Z,19.30
2019-01-06T07:42:41.248Z,19.18
2019-01-06T07:43:41.285Z,19.27
2019-01-06T07:44:41.292Z,19.16
2019-01-06T07:45:41.313Z,19.24
2019-01-06T07:46:41.349Z,19.30
2019-01-06T07:47:41.345Z,19.29
2019-01-06T07:48:41.359Z,19.29
2019-01-06T07:49:41.376Z,19.16
2019-01-06T07:50:41.399Z,19.26
2019-01-06T07:51:41.417Z,19.19
2019-01-06T07:52:41.431Z,19.26
2019-01-06T07:53:41.455Z,19.18
2019-01-06T07:54:41.468Z,19.29
2019-01-06T07:55:41.488Z,19.18
2019-01-06T07:56:41.505Z,19.30
2019-01-06T07:57:41.524Z,19.30
2019-01-06T07:58:41.543Z,19.19
2019-01-06T07:59:41.568Z,19.24
2019-01-06T08:00:41.577Z,19.24
2019-01-06T08:01:41.594Z,19.27
2019-01-06T08:02:41.620Z,19.26
2019-01-06T08:03:41.629Z,19.21
2019-01-06T08:04:41.656Z,19.21
2019-01-06T08:05:41.670Z,19.16
2019-01-06T08:06:41.683Z,19.16
2019-01-06T08:07:41.698Z,19.22
2019-01-06T08:08:41.717Z,19.18
2019-01-06T08:09:41.736Z,19.21
2019-01-06T08:10:41.755Z,19.22
2019-01-06T08:11:41.780Z,19.18
2019-01-06T08:12:41.792Z,19.21
2019-01-06T08:13:41.806Z,19.24
2019-01-06T08:14:41.833Z,19.16
2019-01-06T08:15:41.854Z,19.14
2019-01-06T08:16:41.865Z,19.18
2019-01-06T08:17:41.881Z,19.19
2019-01-06T08:18:41.900Z,19.19
2019-01-06T08:19:41.919Z,19.19
2019-01-06T08:20:41.934Z,19.21
2019-01-06T08:21:41.954Z,19.19
2019-01-06T08:22:41.972Z,19.18
2019-01-06T08:23:41.984Z,19.18
2019-01-06T08:24:42.008Z,19.14
2019-01-06T08:25:42.032Z,19.19
2019-01-06T08:26:42.042Z,19.18
2019-01-06T08:27:42.063Z,19.18
2019-01-06T08:28:42.080Z,19.09
2019-01-06T08:29:42.097Z,19.19
2019-01-06T08:30:42.115Z,19.21
2019-01-06T08:31:42.127Z,19.08
2019-01-06T08:32:42.153Z,19.12
2019-01-06T08:33:42.169Z,19.15
2019-01-06T08:34:42.187Z,19.08
2019-01-06T08:35:42.207Z,19.21
2019-01-06T08:36:42.223Z,19.18
2019-01-06T08:37:42.240Z,19.11
2019-01-06T08:38:42.257Z,19.16
2019-01-06T08:39:42.298Z,19.14
2019-01-06T08:40:42.295Z,19.14
2019-01-06T08:41:42.313Z,19.12
2019-01-06T08:42:42.327Z,19.18
2019-01-06T08:43:42.357Z,19.15
2019-01-06T08:44:42.370Z,19.18
2019-01-06T08:45:42.389Z,19.16
2019-01-06T08:46:42.406Z,19.11
2019-01-06T08:47:42.419Z,19.08
2019-01-06T08:48:42.433Z,19.16
2019-01-06T08:49:42.459Z,19.09
2019-01-06T08:50:42.473Z,19.12
2019-01-06T08:51:42.493Z,19.09
2019-01-06T08:52:42.509Z,19.12
2019-01-06T08:53:42.527Z,19.07
2019-01-06T08:54:42.542Z,19.07
2019-01-06T08:55:42.565Z,19.02
2019-01-06T08:56:42.586Z,19.07
2019-01-06T08:57:42.603Z,19.11
2019-01-06T08:58:42.621Z,19.11
2019-01-06T08:59:42.634Z,19.09
2019-01-06T09:00:42.651Z,19.11
2019-01-06T09:01:42.665Z,19.11
2019-01-06T09:02:42.695Z,19.04
2019-01-06T09:03:43.215Z,19.15
2019-01-06T09:04:42.723Z,19.04
2019-01-06T09:05:42.759Z,19.12
2019-01-06T09:06:42.760Z,19.12
2019-01-06T09:07:42.801Z,19.15
2019-01-06T09:08:44.604Z,19.08
2019-01-06T09:09:45.772Z,19.11
2019-01-06T09:10:42.830Z,19.16
2019-01-06T09:11:42.857Z,19.08
2019-01-06T09:12:45.176Z,19.15
2019-01-06T09:13:42.893Z,19.14
2019-01-06T09:14:42.904Z,19.14
2019-01-06T09:15:42.925Z,19.21
2019-01-06T09:16:42.939Z,19.18
2019-01-06T09:17:42.962Z,19.16
2019-01-06T09:18:43.063Z,19.12
2019-01-06T09:19:50.281Z,19.14
2019-01-06T09:20:43.010Z,19.19
2019-01-06T09:21:43.033Z,19.19
2019-01-06T09:22:43.055Z,19.19
2019-01-06T09:23:43.068Z,19.16
2019-01-06T09:24:43.091Z,19.12
2019-01-06T09:25:43.103Z,19.16
2019-01-06T09:26:43.119Z,19.18
2019-01-06T09:27:43.137Z,19.11
2019-01-06T09:28:43.155Z,19.15
2019-01-06T09:29:43.189Z,19.12
2019-01-06T09:30:43.205Z,19.07
2019-01-06T09:31:43.213Z,19.11
2019-01-06T09:32:43.235Z,18.99
2019-01-06T09:33:43.245Z,19.04
2019-01-06T09:34:43.267Z,18.93
2019-01-06T09:35:43.287Z,18.96
2019-01-06T09:36:43.311Z,18.95
2019-01-06T09:37:43.319Z,19.02
2019-01-06T09:38:43.341Z,18.98
2019-01-06T09:39:43.360Z,18.96
2019-01-06T09:40:43.378Z,18.95
2019-01-06T09:41:43.457Z,18.98
2019-01-06T09:42:43.425Z,18.96
2019-01-06T09:43:43.427Z,18.99
2019-01-06T09:44:43.446Z,18.99
2019-01-06T09:45:43.460Z,18.96
2019-01-06T09:46:43.477Z,19.07
2019-01-06T09:47:43.499Z,19.04
2019-01-06T09:48:43.513Z,19.15
2019-01-06T09:49:43.536Z,19.11
2019-01-06T09:50:43.548Z,19.12
2019-01-06T09:51:43.571Z,19.12
2019-01-06T09:52:43.587Z,19.04
2019-01-06T09:53:43.606Z,19.09
2019-01-06T09:54:43.622Z,19.09
2019-01-06T09:55:43.638Z,19.15
2019-01-06T09:56:43.662Z,19.09
2019-01-06T09:57:43.679Z,19.18
2019-01-06T09:58:43.698Z,19.07
2019-01-06T09:59:43.720Z,19.11
2019-01-06T10:00:43.732Z,19.18
2019-01-06T10:01:43.745Z,19.04
2019-01-06T10:02:43.766Z,19.14
2019-01-06T10:03:43.782Z,19.14
2019-01-06T10:04:43.802Z,19.15
2019-01-06T10:05:43.822Z,19.09
2019-01-06T10:06:43.840Z,19.18
2019-01-06T10:07:43.856Z,19.14
2019-01-06T10:08:43.882Z,19.14
2019-01-06T10:09:43.894Z,19.12
2019-01-06T10:10:43.914Z,19.11
2019-01-06T10:11:43.936Z,19.12
2019-01-06T10:12:43.942Z,19.09
2019-01-06T10:13:43.966Z,19.08
2019-01-06T10:14:43.982Z,19.16
2019-01-06T10:15:44.001Z,19.14
2019-01-06T10:16:44.020Z,19.16
2019-01-06T10:17:44.033Z,19.18
2019-01-06T10:18:44.054Z,19.14
2019-01-06T10:19:44.078Z,19.19
2019-01-06T10:20:44.101Z,19.18
2019-01-06T10:21:44.109Z,19.14
2019-01-06T10:22:44.127Z,19.19
2019-01-06T10:23:44.154Z,19.24
2019-01-06T10:24:51.644Z,19.08
2019-01-06T10:25:44.187Z,19.14
2019-01-06T10:26:44.208Z,19.19
2019-01-06T10:27:44.216Z,19.11
2019-01-06T10:28:44.228Z,19.18
2019-01-06T10:29:44.248Z,19.18
2019-01-06T10:30:44.278Z,19.19
2019-01-06T10:31:44.288Z,19.18
2019-01-06T10:32:44.306Z,19.12
2019-01-06T10:33:44.324Z,19.19
2019-01-06T10:34:44.338Z,19.14
2019-01-06T10:35:44.360Z,19.19
2019-01-06T10:36:44.382Z,19.19
2019-01-06T10:37:44.396Z,19.19
2019-01-06T10:38:44.408Z,19.16
2019-01-06T10:39:44.431Z,19.14
2019-01-06T10:40:44.446Z,19.18
2019-01-06T10:41:44.468Z,19.16
2019-01-06T10:42:44.487Z,19.19
2019-01-06T10:43:44.498Z,19.14
2019-01-06T10:44:44.522Z,19.16
2019-01-06T10:45:44.542Z,19.19
2019-01-06T10:46:44.554Z,19.16
2019-01-06T10:47:44.582Z,19.16
2019-01-06T10:48:44.592Z,19.24
2019-01-06T10:49:44.612Z,19.19
2019-01-06T10:50:44.630Z,19.19
2019-01-06T10:51:44.644Z,19.26
2019-01-06T10:52:44.666Z,19.15
2019-01-06T10:53:44.686Z,19.19
2019-01-06T10:54:44.728Z,19.22
2019-01-06T10:55:44.718Z,19.19
2019-01-06T10:56:44.737Z,19.26
2019-01-06T10:57:44.907Z,19.22
2019-01-06T10:58:44.779Z,19.21
2019-01-06T10:59:44.796Z,19.21
2019-01-06T11:00:44.807Z,19.21
2019-01-06T11:01:44.824Z,19.24
2019-01-06T11:02:44.839Z,19.16
2019-01-06T11:03:44.869Z,19.18
2019-01-06T11:04:44.883Z,19.18
2019-01-06T11:05:44.898Z,19.19
2019-01-06T11:06:44.922Z,19.30
2019-01-06T11:07:44.934Z,19.24
2019-01-06T11:08:44.954Z,19.31
2019-01-06T11:09:44.973Z,19.18
2019-01-06T11:10:44.987Z,19.21
2019-01-06T11:11:45.012Z,19.24
2019-01-06T11:12:45.018Z,19.18
2019-01-06T11:13:45.037Z,19.24
2019-01-06T11:14:45.058Z,19.22
2019-01-06T11:15:45.082Z,19.22
2019-01-06T11:16:45.096Z,19.29
2019-01-06T11:17:45.114Z,19.24
2019-01-06T11:18:45.130Z,19.24
2019-01-06T11:19:45.146Z,19.29
2019-01-06T11:20:45.170Z,19.21
2019-01-06T11:21:45.190Z,19.30
2019-01-06T11:22:45.266Z,19.19
2019-01-06T11:23:45.224Z,19.26
2019-01-06T11:24:45.240Z,19.18
2019-01-06T11:25:45.253Z,19.16
2019-01-06T11:26:45.295Z,19.22
2019-01-06T11:27:45.295Z,19.24
2019-01-06T11:28:45.322Z,19.24
2019-01-06T11:29:45.334Z,19.15
2019-01-06T11:30:45.350Z,19.21
2019-01-06T11:31:45.362Z,19.21
2019-01-06T11:32:45.392Z,19.24
2019-01-06T11:33:45.410Z,19.22
2019-01-06T11:34:45.425Z,19.27
2019-01-06T11:35:45.444Z,19.19
2019-01-06T11:36:45.456Z,19.18
2019-01-06T11:37:45.474Z,19.24
2019-01-06T11:38:45.490Z,19.24
2019-01-06T11:39:45.508Z,19.21
2019-01-06T11:40:45.533Z,19.24
2019-01-06T11:41:45.545Z,19.26
2019-01-06T11:42:45.567Z,19.29
2019-01-06T11:43:45.582Z,19.19
2019-01-06T11:44:45.598Z,19.16
2019-01-06T11:45:45.618Z,19.27
2019-01-06T11:46:45.630Z,19.24
2019-01-06T11:47:45.658Z,19.27
2019-01-06T11:48:45.670Z,19.26
2019-01-06T11:49:45.691Z,19.26
2019-01-06T11:50:45.706Z,19.27
2019-01-06T11:51:45.726Z,19.24
2019-01-06T11:52:45.741Z,19.30
2019-01-06T11:53:45.766Z,19.24
2019-01-06T11:54:45.779Z,19.21
2019-01-06T11:55:45.803Z,19.24
2019-01-06T11:56:45.821Z,19.16
2019-01-06T11:57:45.834Z,19.24
2019-01-06T11:58:45.855Z,19.29
2019-01-06T11:59:45.872Z,19.21
2019-01-06T12:00:45.887Z,19.26
2019-01-06T12:01:45.909Z,19.21
2019-01-06T12:02:45.926Z,19.27
2019-01-06T12:03:45.955Z,19.30
2019-01-06T12:04:45.959Z,19.18
2019-01-06T12:05:45.977Z,19.22
2019-01-06T12:06:45.993Z,19.27
2019-01-06T12:07:46.025Z,19.18
2019-01-06T12:08:46.031Z,19.27
2019-01-06T12:09:46.046Z,19.31
2019-01-06T12:10:46.066Z,19.29
2019-01-06T12:11:46.087Z,19.21
2019-01-06T12:12:46.107Z,19.30
2019-01-06T12:13:46.123Z,19.24
2019-01-06T12:14:46.139Z,19.18
2019-01-06T12:15:46.154Z,19.22
2019-01-06T12:16:46.177Z,19.31
2019-01-06T12:17:46.191Z,19.21
2019-01-06T12:18:46.213Z,19.27
2019-01-06T12:19:46.231Z,19.27
2019-01-06T12:20:46.249Z,19.30
2019-01-06T12:21:46.271Z,19.19
2019-01-06T12:22:46.281Z,19.24
2019-01-06T12:23:46.291Z,19.24
2019-01-06T12:24:46.321Z,19.29
2019-01-06T12:25:46.341Z,19.31
2019-01-06T12:26:46.357Z,19.18
2019-01-06T12:27:46.397Z,19.29
2019-01-06T12:28:46.396Z,19.34
2019-01-06T12:29:46.411Z,19.26
2019-01-06T12:30:46.425Z,19.31
2019-01-06T12:31:46.447Z,19.30
2019-01-06T12:32:46.471Z,19.30
2019-01-06T12:33:46.508Z,19.31
2019-01-06T12:34:46.502Z,19.27
2019-01-06T12:35:46.513Z,19.31
2019-01-06T12:36:46.536Z,19.37
2019-01-06T12:37:46.555Z,19.33
2019-01-06T12:38:46.577Z,19.26
2019-01-06T12:39:46.587Z,19.33
2019-01-06T12:40:46.607Z,19.29
2019-01-06T12:41:46.629Z,19.36
2019-01-06T12:42:46.638Z,19.29
2019-01-06T12:43:46.659Z,19.31
2019-01-06T12:44:46.688Z,19.30
2019-01-06T12:45:46.698Z,19.33
2019-01-06T12:46:46.728Z,19.29
2019-01-06T12:47:46.747Z,19.29
2019-01-06T12:48:46.752Z,19.33
2019-01-06T12:49:46.759Z,19.30
2019-01-06T12:50:46.792Z,19.27
2019-01-06T12:51:46.817Z,19.27
2019-01-06T12:52:46.829Z,19.22